Terminal Aerodrome Forecast
Issued by NWS

Home | Current Version | Previous Version | Text Only | Print | Product List | Glossary On
Versions: 1 2 3 4 5 6 7 8 9 10 11 12 13 14 15 16 17 18 19 20 21 22 23 24 25 26 27 28 29 30 31 32 33 34
000
FTUS41 KBOX 041234 AAA
TAFFMH
TAF AMD
KFMH 041234Z 0413/0512 00000KT P6SM FEW003 FEW035 SCT070
     FM041800 22014G23KT P6SM BKN250
     FM042200 22012KT P6SM VCTS BKN250CB
     FM050000 23009KT P6SM VCSH OVC070
     FM050200 23007KT P6SM BKN250
     FM050700 VRB03KT P6SM SCT250=

USA.gov is the U.S. government's official web portal to all federal, state and local government web resources and services.